Time;durP1;ratioP1;P1;durP2;ratioP2;P2;SDS_P1;SDS_P2;PMS_P1;PMS_P2;Temp;Humidity;BMP_temperature;BMP_pressure;BME280_temperature;BME280_humidity;BME280_pressure;Samples;Min_cycle;Max_cycle;Signal;HPM_P1;HPM_P2
2022/11/23 00:01:59;;;;;;;;;;;;;;;;;;5035158;28;7173;-71
2022/11/23 00:04:24;;;;;;;;;;;;;;;;;;5035412;28;7090;-69
2022/11/23 00:06:51;;;;;;;;;;;;;;;;;;5034369;28;7747;-69
2022/11/23 00:09:17;;;;;;;;;;;;;;;;;;5034912;28;6849;-69
2022/11/23 00:11:43;;;;;;;;;;;;;;;;;;5034887;28;7157;-69
2022/11/23 00:14:16;;;;;;;;;;;;;;;;;;5034819;28;7245;-69
2022/11/23 00:16:42;;;;;;;;;;;;;;;;;;5034433;28;7099;-69
2022/11/23 00:19:08;;;;;;;;;;;;;;;;;;5034929;28;7108;-64
2022/11/23 00:22:05;;;;;;;;;;;;;;;;;;5034678;28;7068;-64
2022/11/23 00:24:30;;;;;;;;;;;;;;;;;;5034459;28;7082;-64
2022/11/23 00:27:03;;;;;;;;;;;;;;;;;;5036251;28;6912;-64
2022/11/23 00:29:39;;;;;;;;;;;;;;;;;;5038155;28;7040;-64
2022/11/23 00:32:05;;;;;;;;;;;;;;;;;;5038331;28;6943;-64
2022/11/23 00:34:37;;;;;;;;;;;;;;;;;;5038789;28;6918;-64
2022/11/23 00:39:28;;;;;;;;;;;;;;;;;;5038773;28;8916;-64
2022/11/23 00:41:54;;;;;;;;;;;;;;;;;;5038270;28;6951;-64
2022/11/23 00:44:35;;;;;;;;;;;;;;;;;;5038414;28;7029;-64
2022/11/23 00:47:04;;;;;;;;;;;;;;;;;;5038892;28;6986;-64
2022/11/23 00:49:29;;;;;;;;;;;;;;;;;;5038263;28;7160;-64
2022/11/23 00:51:55;;;;;;;;;;;;;;;;;;5038083;28;7069;-64
2022/11/23 00:54:21;;;;;;;;;;;;;;;;;;5037843;28;7828;-64
2022/11/23 00:56:46;;;;;;;;;;;;;;;;;;5038509;28;7062;-64
2022/11/23 00:59:24;;;;;;;;;;;;;;;;;;5038021;28;6906;-68
2022/11/23 01:01:50;;;;;;;;;;;;;;;;;;5038048;28;7169;-68
2022/11/23 01:04:21;;;;;;;;;;;;;;;;;;5038078;28;7153;-68
2022/11/23 01:06:47;;;;;;;;;;;;;;;;;;5038201;28;7107;-68
2022/11/23 01:09:34;;;;;;;;;;;;;;;;;;5038446;28;7041;-68
2022/11/23 01:12:09;;;;;;;;;;;;;;;;;;5037989;28;6968;-69
2022/11/23 01:14:35;;;;;;;;;;;;;;;;;;5037737;28;7392;-69
2022/11/23 01:17:00;;;;;;;;;;;;;;;;;;5037648;28;7171;-69
2022/11/23 01:19:26;;;;;;;;;;;;;;;;;;5036095;28;7235;-69
2022/11/23 01:22:06;;;;;;;;;;;;;;;;;;5037456;28;7642;-69
2022/11/23 01:24:31;;;;;;;;;;;;;;;;;;5037614;28;7137;-69
2022/11/23 01:27:07;;;;;;;;;;;;;;;;;;5037220;28;6864;-69
2022/11/23 01:29:35;;;;;;;;;;;;;;;;;;5037199;28;6998;-69
2022/11/23 01:32:01;;;;;;;;;;;;;;;;;;5037520;28;7340;-69
2022/11/23 01:34:55;;;;;;;;;;;;;;;;;;5037519;28;7365;-69
2022/11/23 01:37:20;;;;;;;;;;;;;;;;;;5037335;28;7435;-64
2022/11/23 01:39:52;;;;;;;;;;;;;;;;;;5037632;28;6962;-64
2022/11/23 01:42:18;;;;;;;;;;;;;;;;;;5037301;28;7544;-64
2022/11/23 01:45:24;;;;;;;;;;;;;;;;;;5037312;28;7591;-64
2022/11/23 01:47:49;;;;;;;;;;;;;;;;;;5037174;28;7320;-64
2022/11/23 01:50:18;;;;;;;;;;;;;;;;;;5037753;28;6976;-64
2022/11/23 01:52:44;;;;;;;;;;;;;;;;;;5037295;28;7375;-64
2022/11/23 01:55:09;;;;;;;;;;;;;;;;;;5037184;28;7393;-64
2022/11/23 01:57:44;;;;;;;;;;;;;;;;;;5036534;28;6801;-64
2022/11/23 02:00:12;;;;;;;;;;;;;;;;;;5036854;28;7128;-64
2022/11/23 02:02:42;;;;;;;;;;;;;;;;;;5036750;28;7137;-64
2022/11/23 02:05:07;;;;;;;;;;;;;;;;;;5036571;28;7045;-64
2022/11/23 02:07:41;;;;;;;;;;;;;;;;;;5036843;28;7202;-64
2022/11/23 02:10:07;;;;;;;;;;;;;;;;;;5036958;28;7208;-64
2022/11/23 02:12:33;;;;;;;;;;;;;;;;;;5036837;28;7192;-72
2022/11/23 02:14:59;;;;;;;;;;;;;;;;;;5036856;28;7098;-64
2022/11/23 02:17:25;;;;;;;;;;;;;;;;;;5036452;28;7171;-64
2022/11/23 02:20:11;;;;;;;;;;;;;;;;;;5036249;28;7012;-64
2022/11/23 02:22:51;;;;;;;;;;;;;;;;;;5036751;28;6837;-64
2022/11/23 02:25:40;;;;;;;;;;;;;;;;;;5036607;28;6931;-64
2022/11/23 02:28:21;;;;;;;;;;;;;;;;;;5032916;28;7207;-64
2022/11/23 02:30:56;;;;;;;;;;;;;;;;;;5035844;28;7119;-64
2022/11/23 02:33:21;;;;;;;;;;;;;;;;;;5036350;28;7057;-64
2022/11/23 02:36:00;;;;;;;;;;;;;;;;;;5036394;28;7219;-64
2022/11/23 02:38:29;;;;;;;;;;;;;;;;;;5034739;28;7028;-64
2022/11/23 02:41:09;;;;;;;;;;;;;;;;;;5034552;28;7078;-64
2022/11/23 02:43:35;;;;;;;;;;;;;;;;;;5036392;28;6946;-64
2022/11/23 02:46:03;;;;;;;;;;;;;;;;;;5036101;28;7109;-64
2022/11/23 02:48:29;;;;;;;;;;;;;;;;;;5035815;28;7324;-64
2022/11/23 02:51:00;;;;;;;;;;;;;;;;;;5035137;28;6953;-64
2022/11/23 02:53:26;;;;;;;;;;;;;;;;;;5035766;28;6968;-64
2022/11/23 02:55:52;;;;;;;;;;;;;;;;;;5035851;28;7156;-67
2022/11/23 02:58:20;;;;;;;;;;;;;;;;;;5035370;28;7049;-68
2022/11/23 03:00:46;;;;;;;;;;;;;;;;;;5035513;28;7239;-68
2022/11/23 03:03:11;;;;;;;;;;;;;;;;;;5035711;28;6997;-68
2022/11/23 03:05:37;;;;;;;;;;;;;;;;;;5033881;28;7051;-68
2022/11/23 03:08:03;;;;;;;;;;;;;;;;;;5035645;28;7232;-68
2022/11/23 03:10:28;;;;;;;;;;;;;;;;;;5035276;28;7416;-69
2022/11/23 03:12:55;;;;;;;;;;;;;;;;;;5035584;28;7407;-69
2022/11/23 03:15:27;;;;;;;;;;;;;;;;;;5035680;28;7225;-69
2022/11/23 03:17:53;;;;;;;;;;;;;;;;;;5036039;28;7068;-69
2022/11/23 03:20:19;;;;;;;;;;;;;;;;;;5034416;28;6854;-69
2022/11/23 03:22:54;;;;;;;;;;;;;;;;;;5035207;28;7519;-69
2022/11/23 03:25:19;;;;;;;;;;;;;;;;;;5034887;28;7122;-69
2022/11/23 03:27:46;;;;;;;;;;;;;;;;;;5034831;28;6966;-69
2022/11/23 03:30:12;;;;;;;;;;;;;;;;;;5030499;28;7012;-69
2022/11/23 03:32:38;;;;;;;;;;;;;;;;;;5034760;28;6917;-69
2022/11/23 03:35:05;;;;;;;;;;;;;;;;;;5035409;28;7176;-69
2022/11/23 03:37:30;;;;;;;;;;;;;;;;;;5033703;28;8462;-69
2022/11/23 03:39:56;;;;;;;;;;;;;;;;;;5035269;28;7508;-69
2022/11/23 03:42:44;;;;;;;;;;;;;;;;;;5034742;28;6849;-68
2022/11/23 03:45:09;;;;;;;;;;;;;;;;;;5034759;28;7082;-69
2022/11/23 03:47:44;;;;;;;;;;;;;;;;;;5034728;28;7494;-69
2022/11/23 03:50:09;;;;;;;;;;;;;;;;;;5034810;28;7184;-69
2022/11/23 03:52:35;;;;;;;;;;;;;;;;;;5034799;28;7471;-64
2022/11/23 03:55:01;;;;;;;;;;;;;;;;;;5034928;28;6820;-64
2022/11/23 03:57:36;;;;;;;;;;;;;;;;;;5036091;28;7381;-64
2022/11/23 04:00:03;;;;;;;;;;;;;;;;;;5034619;28;7214;-64
2022/11/23 04:02:29;;;;;;;;;;;;;;;;;;5034012;28;7434;-64
2022/11/23 04:04:55;;;;;;;;;;;;;;;;;;5034476;28;7020;-64
2022/11/23 04:07:21;;;;;;;;;;;;;;;;;;5035040;28;6987;-64
2022/11/23 04:10:01;;;;;;;;;;;;;;;;;;5034519;28;7219;-63
2022/11/23 04:12:29;;;;;;;;;;;;;;;;;;5035256;28;7058;-64
2022/11/23 04:14:55;;;;;;;;;;;;;;;;;;5032979;28;8739;-64
2022/11/23 04:17:20;;;;;;;;;;;;;;;;;;5034149;28;7239;-64
2022/11/23 04:19:46;;;;;;;;;;;;;;;;;;5034600;28;6880;-68
2022/11/23 04:22:14;;;;;;;;;;;;;;;;;;5034499;28;7313;-68
2022/11/23 04:24:40;;;;;;;;;;;;;;;;;;5034616;28;7006;-68
2022/11/23 04:27:05;;;;;;;;;;;;;;;;;;5034768;28;7035;-68
2022/11/23 04:29:31;;;;;;;;;;;;;;;;;;5034355;28;7177;-68
2022/11/23 04:31:56;;;;;;;;;;;;;;;;;;5033434;28;7284;-68
2022/11/23 04:34:22;;;;;;;;;;;;;;;;;;5034492;28;7370;-68
2022/11/23 04:36:48;;;;;;;;;;;;;;;;;;5033753;28;8171;-68
2022/11/23 04:39:13;;;;;;;;;;;;;;;;;;5034289;28;6918;-68
2022/11/23 04:44:42;;;;;;;;;;;;;;;;;;5033990;28;6680;-68
2022/11/23 04:50:10;;;;;;;;;;;;;;;;;;5033780;28;7439;-68
2022/11/23 04:52:36;;;;;;;;;;;;;;;;;;5034253;28;6939;-68
2022/11/23 04:55:06;;;;;;;;;;;;;;;;;;5034126;28;7579;-68
2022/11/23 04:57:32;;;;;;;;;;;;;;;;;;5034486;28;7324;-68
2022/11/23 04:59:58;;;;;;;;;;;;;;;;;;5034358;28;7060;-68
2022/11/23 05:02:23;;;;;;;;;;;;;;;;;;5034093;28;6883;-68
2022/11/23 05:04:49;;;;;;;;;;;;;;;;;;5033987;28;6939;-69
2022/11/23 05:07:16;;;;;;;;;;;;;;;;;;5033591;28;6976;-64
2022/11/23 05:09:43;;;;;;;;;;;;;;;;;;5033578;28;7087;-64
2022/11/23 05:12:27;;;;;;;;;;;;;;;;;;5034528;28;7095;-64
2022/11/23 05:14:53;;;;;;;;;;;;;;;;;;5038189;28;7404;-64
2022/11/23 05:17:18;;;;;;;;;;;;;;;;;;5038005;28;6955;-68
2022/11/23 05:19:44;;;;;;;;;;;;;;;;;;5037418;28;7014;-68
2022/11/23 05:22:10;;;;;;;;;;;;;;;;;;5038006;28;7194;-68
2022/11/23 05:24:35;;;;;;;;;;;;;;;;;;5037526;28;7009;-68
2022/11/23 05:27:01;;;;;;;;;;;;;;;;;;5038175;28;7231;-68
2022/11/23 05:29:33;;;;;;;;;;;;;;;;;;5038044;28;7086;-68
2022/11/23 05:32:06;;;;;;;;;;;;;;;;;;5063081;28;6923;-68
2022/11/23 05:34:32;;;;;;;;;;;;;;;;;;5078045;28;7016;-68
2022/11/23 05:37:00;;;;;;;;;;;;;;;;;;5077354;28;7130;-64
2022/11/23 05:39:26;;;;;;;;;;;;;;;;;;5077699;28;7201;-63
2022/11/23 05:41:53;;;;;;;;;;;;;;;;;;5077742;28;7008;-64
2022/11/23 05:44:18;;;;;;;;;;;;;;;;;;5077730;28;7312;-63
2022/11/23 05:46:44;;;;;;;;;;;;;;;;;;5077240;28;6851;-63
2022/11/23 05:49:09;;;;;;;;;;;;;;;;;;5077073;28;7239;-67
2022/11/23 05:51:35;;;;;;;;;;;;;;;;;;5076783;28;7083;-67
2022/11/23 05:54:21;;;;;;;;;;;;;;;;;;5058808;28;8446;-67
2022/11/23 05:56:47;;;;;;;;;;;;;;;;;;5077239;28;7160;-67
2022/11/23 05:59:19;;;;;;;;;;;;;;;;;;5077087;28;7117;-67
2022/11/23 06:01:45;;;;;;;;;;;;;;;;;;5076825;28;6845;-67
2022/11/23 06:04:20;;;;;;;;;;;;;;;;;;5076867;28;7188;-67
2022/11/23 06:06:46;;;;;;;;;;;;;;;;;;5076621;28;7068;-67
2022/11/23 06:09:14;;;;;;;;;;;;;;;;;;5076511;28;7187;-67
2022/11/23 06:11:40;;;;;;;;;;;;;;;;;;5076356;28;6919;-68
2022/11/23 06:14:07;;;;;;;;;;;;;;;;;;5076455;28;7046;-68
2022/11/23 06:16:33;;;;;;;;;;;;;;;;;;5076429;28;6990;-68
2022/11/23 06:18:58;;;;;;;;;;;;;;;;;;5076025;28;8273;-68
2022/11/23 06:21:24;;;;;;;;;;;;;;;;;;5058885;28;9006;-68
2022/11/23 06:24:10;;;;;;;;;;;;;;;;;;5075777;28;7423;-68
2022/11/23 06:26:36;;;;;;;;;;;;;;;;;;5076288;28;6843;-68
2022/11/23 06:29:01;;;;;;;;;;;;;;;;;;5076362;28;7874;-68
2022/11/23 06:31:51;;;;;;;;;;;;;;;;;;5076087;28;6984;-68
2022/11/23 06:34:16;;;;;;;;;;;;;;;;;;5075831;28;7000;-68
2022/11/23 06:36:42;;;;;;;;;;;;;;;;;;5058346;28;7184;-68
2022/11/23 06:39:08;;;;;;;;;;;;;;;;;;5076114;28;7188;-68
2022/11/23 06:41:37;;;;;;;;;;;;;;;;;;5076062;28;7032;-68
2022/11/23 06:44:13;;;;;;;;;;;;;;;;;;5057937;28;7009;-68
2022/11/23 06:46:39;;;;;;;;;;;;;;;;;;5076429;28;7300;-68
2022/11/23 06:49:05;;;;;;;;;;;;;;;;;;5071189;28;7152;-63
2022/11/23 06:51:54;;;;;;;;;;;;;;;;;;5072781;28;7103;-63
2022/11/23 06:54:19;;;;;;;;;;;;;;;;;;5055877;28;6820;-63
2022/11/23 06:56:46;;;;;;;;;;;;;;;;;;5054554;28;7289;-63
2022/11/23 06:59:12;;;;;;;;;;;;;;;;;;5055291;28;6908;-64
2022/11/23 07:02:03;;;;;;;;;;;;;;;;;;5055044;28;6996;-63
2022/11/23 07:04:29;;;;;;;;;;;;;;;;;;5037048;28;7253;-64
2022/11/23 07:06:55;;;;;;;;;;;;;;;;;;5055574;28;6811;-64
2022/11/23 07:09:21;;;;;;;;;;;;;;;;;;5074929;28;6974;-64
2022/11/23 07:11:51;;;;;;;;;;;;;;;;;;5075737;28;7175;-64
2022/11/23 07:14:17;;;;;;;;;;;;;;;;;;5071489;28;7170;-64
2022/11/23 07:19:56;;;;;;;;;;;;;;;;;;5075055;28;6934;-64
2022/11/23 07:22:22;;;;;;;;;;;;;;;;;;5074683;28;7640;-64
2022/11/23 07:28:10;;;;;;;;;;;;;;;;;;5074953;28;6695;-64
2022/11/23 07:30:41;;;;;;;;;;;;;;;;;;5073263;28;7052;-64
2022/11/23 07:33:08;;;;;;;;;;;;;;;;;;5066931;28;7441;-64
2022/11/23 07:35:35;;;;;;;;;;;;;;;;;;5053094;28;7382;-64
2022/11/23 07:38:02;;;;;;;;;;;;;;;;;;5053675;28;7027;-64
2022/11/23 07:40:28;;;;;;;;;;;;;;;;;;5052754;28;7016;-64
2022/11/23 07:43:02;;;;;;;;;;;;;;;;;;5052768;28;7027;-68
2022/11/23 07:45:31;;;;;;;;;;;;;;;;;;5053576;28;7028;-68
2022/11/23 07:48:07;;;;;;;;;;;;;;;;;;5036057;28;7196;-68
2022/11/23 07:50:33;;;;;;;;;;;;;;;;;;5053357;28;7220;-68
2022/11/23 07:53:02;;;;;;;;;;;;;;;;;;5052234;28;7243;-68
2022/11/23 07:55:29;;;;;;;;;;;;;;;;;;5053241;28;7061;-69
2022/11/23 07:57:57;;;;;;;;;;;;;;;;;;5034086;28;7263;-69
2022/11/23 08:00:24;;;;;;;;;;;;;;;;;;5054039;28;7139;-69
2022/11/23 08:02:59;;;;;;;;;;;;;;;;;;5036319;28;7391;-69
2022/11/23 08:05:25;;;;;;;;;;;;;;;;;;5054297;28;6964;-69
2022/11/23 08:07:56;;;;;;;;;;;;;;;;;;5054452;28;7408;-69
2022/11/23 08:10:31;;;;;;;;;;;;;;;;;;5054205;28;6990;-69
2022/11/23 08:12:57;;;;;;;;;;;;;;;;;;5054092;28;7196;-69
2022/11/23 08:15:23;;;;;;;;;;;;;;;;;;5054050;28;6996;-71
2022/11/23 08:18:11;;;;;;;;;;;;;;;;;;5054154;28;7401;-69
2022/11/23 08:20:36;;;;;;;;;;;;;;;;;;5054101;28;7684;-69
2022/11/23 08:26:05;;;;;;;;;;;;;;;;;;5054048;28;7034;-68
2022/11/23 08:28:31;;;;;;;;;;;;;;;;;;5054047;28;7044;-68
2022/11/23 08:31:16;;;;;;;;;;;;;;;;;;5053384;28;7865;-69
2022/11/23 08:33:41;;;;;;;;;;;;;;;;;;5052816;28;7193;-68
2022/11/23 08:36:26;;;;;;;;;;;;;;;;;;5051906;28;6917;-68
2022/11/23 08:38:53;;;;;;;;;;;;;;;;;;5052035;28;7313;-64
2022/11/23 08:41:35;;;;;;;;;;;;;;;;;;5052201;28;7020;-64
2022/11/23 08:44:00;;;;;;;;;;;;;;;;;;5052836;28;7072;-64
2022/11/23 08:46:28;;;;;;;;;;;;;;;;;;5051878;28;7101;-64
2022/11/23 08:48:53;;;;;;;;;;;;;;;;;;5054108;28;7419;-64
2022/11/23 08:51:26;;;;;;;;;;;;;;;;;;5053896;28;8412;-64
2022/11/23 08:53:52;;;;;;;;;;;;;;;;;;5055274;28;7025;-64
2022/11/23 08:56:20;;;;;;;;;;;;;;;;;;5055464;28;7073;-64
2022/11/23 08:58:46;;;;;;;;;;;;;;;;;;5055844;28;7101;-64
2022/11/23 09:01:17;;;;;;;;;;;;;;;;;;5055892;28;7032;-65
2022/11/23 09:03:43;;;;;;;;;;;;;;;;;;5055975;28;7004;-64
2022/11/23 09:06:19;;;;;;;;;;;;;;;;;;5055965;28;7252;-64
2022/11/23 09:08:44;;;;;;;;;;;;;;;;;;5055731;28;7376;-64
2022/11/23 09:11:21;;;;;;;;;;;;;;;;;;5074613;28;7323;-68
2022/11/23 09:13:46;;;;;;;;;;;;;;;;;;5075077;28;7086;-68
2022/11/23 09:16:14;;;;;;;;;;;;;;;;;;5073759;28;7431;-68
2022/11/23 09:18:40;;;;;;;;;;;;;;;;;;5075574;28;7038;-68
2022/11/23 09:21:13;;;;;;;;;;;;;;;;;;5075738;28;7149;-67
2022/11/23 09:23:39;;;;;;;;;;;;;;;;;;5077326;28;7145;-67
2022/11/23 09:29:27;;;;;;;;;;;;;;;;;;5076967;28;6828;-68
2022/11/23 09:32:01;;;;;;;;;;;;;;;;;;5076860;28;7145;-68
2022/11/23 09:34:27;;;;;;;;;;;;;;;;;;5077319;28;7461;-68
2022/11/23 09:37:07;;;;;;;;;;;;;;;;;;5077076;28;7031;-68
2022/11/23 09:39:33;;;;;;;;;;;;;;;;;;5075497;28;7077;-75
2022/11/23 09:42:13;;;;;;;;;;;;;;;;;;5077071;28;7175;-69
2022/11/23 09:47:42;;;;;;;;;;;;;;;;;;5076630;28;6933;-69
2022/11/23 09:50:08;;;;;;;;;;;;;;;;;;5076940;28;7065;-69
2022/11/23 09:53:10;;;;;;;;;;;;;;;;;;5076177;28;7420;-69
2022/11/23 09:55:41;;;;;;;;;;;;;;;;;;5076642;28;7169;-68
2022/11/23 10:01:22;;;;;;;;;;;;;;;;;;5076568;28;6761;-68
2022/11/23 10:03:48;;;;;;;;;;;;;;;;;;5075934;28;6967;-68
2022/11/23 10:06:41;;;;;;;;;;;;;;;;;;5076599;28;7231;-69
2022/11/23 10:09:09;;;;;;;;;;;;;;;;;;5077175;28;7703;-69
2022/11/23 10:11:48;;;;;;;;;;;;;;;;;;5076377;28;7115;-68
2022/11/23 10:14:13;;;;;;;;;;;;;;;;;;5076234;28;7554;-68
2022/11/23 10:20:01;;;;;;;;;;;;;;;;;;5075803;28;7007;-68
2022/11/23 10:25:53;;;;;;;;;;;;;;;;;;5075999;28;7107;-68
2022/11/23 10:28:21;;;;;;;;;;;;;;;;;;5076058;28;7448;-68
2022/11/23 10:34:24;;;;;;;;;;;;;;;;;;5076256;28;7030;-68
2022/11/23 10:36:50;;;;;;;;;;;;;;;;;;5075917;28;7277;-69
2022/11/23 10:39:27;;;;;;;;;;;;;;;;;;5075956;28;7238;-69
2022/11/23 10:41:57;;;;;;;;;;;;;;;;;;5075704;28;7198;-69
2022/11/23 10:44:35;;;;;;;;;;;;;;;;;;5075930;28;6984;-69
2022/11/23 10:47:00;;;;;;;;;;;;;;;;;;5074112;28;8421;-69
2022/11/23 10:49:35;;;;;;;;;;;;;;;;;;5075454;28;7142;-69
2022/11/23 10:55:14;;;;;;;;;;;;;;;;;;4975250;28;6995;-68
2022/11/23 10:57:44;;;;;;;;;;;;;;;;;;4974435;28;7221;-69
2022/11/23 11:00:09;;;;;;;;;;;;;;;;;;4974473;28;7153;-68
2022/11/23 11:02:47;;;;;;;;;;;;;;;;;;4974456;28;7212;-68
2022/11/23 11:05:12;;;;;;;;;;;;;;;;;;4974311;28;7666;-68
2022/11/23 11:07:38;;;;;;;;;;;;;;;;;;4974311;28;7145;-68
2022/11/23 11:13:24;;;;;;;;;;;;;;;;;;4974360;28;7470;-68
2022/11/23 11:15:55;;;;;;;;;;;;;;;;;;4974312;28;7255;-68
2022/11/23 11:21:44;;;;;;;;;;;;;;;;;;4974340;28;6755;-68
2022/11/23 11:24:28;;;;;;;;;;;;;;;;;;4974157;28;7897;-68
2022/11/23 11:29:51;;;;;;;;;;;;;;;;;;5058193;28;6991;-68
2022/11/23 11:32:31;;;;;;;;;;;;;;;;;;5059856;28;7009;-68
2022/11/23 11:35:12;;;;;;;;;;;;;;;;;;5054886;28;7147;-68
2022/11/23 11:40:51;;;;;;;;;;;;;;;;;;5054548;28;6827;-68
2022/11/23 11:46:38;;;;;;;;;;;;;;;;;;5054237;28;7559;-68
2022/11/23 11:49:21;;;;;;;;;;;;;;;;;;5054505;28;7411;-68
2022/11/23 11:52:14;;;;;;;;;;;;;;;;;;5054563;28;6964;-68
2022/11/23 11:57:49;;;;;;;;;;;;;;;;;;5054166;28;6929;-68
2022/11/23 12:00:19;;;;;;;;;;;;;;;;;;5054351;28;7159;-68
2022/11/23 12:03:06;;;;;;;;;;;;;;;;;;5054101;28;7166;-68
2022/11/23 12:05:41;;;;;;;;;;;;;;;;;;5054287;28;7151;-69
2022/11/23 12:08:25;;;;;;;;;;;;;;;;;;5054165;28;7159;-69
2022/11/23 12:10:53;;;;;;;;;;;;;;;;;;5054179;28;6861;-68
2022/11/23 12:13:45;;;;;;;;;;;;;;;;;;5054213;28;7199;-68
2022/11/23 12:16:44;;;;;;;;;;;;;;;;;;5054178;28;7201;-68
2022/11/23 12:19:12;;;;;;;;;;;;;;;;;;5054009;28;7451;-68
2022/11/23 12:21:56;;;;;;;;;;;;;;;;;;5054165;28;7145;-68
2022/11/23 12:24:34;;;;;;;;;;;;;;;;;;5058034;28;7070;-68
2022/11/23 12:36:26;;;;;;;;;;;;;;;;;;5038213;28;6944;-68
2022/11/23 12:42:21;;;;;;;;;;;;;;;;;;5037979;28;7002;-68
2022/11/23 12:44:52;;;;;;;;;;;;;;;;;;5038050;28;7276;-68
2022/11/23 12:47:24;;;;;;;;;;;;;;;;;;5037777;28;6967;-68
2022/11/23 12:53:26;;;;;;;;;;;;;;;;;;5037594;28;7070;-68
2022/11/23 13:01:59;;;;;;;;;;;;;;;;;;5038162;28;6924;-68
2022/11/23 13:04:24;;;;;;;;;;;;;;;;;;5037409;28;7057;-68
2022/11/23 13:06:53;;;;;;;;;;;;;;;;;;5037691;28;7141;-68
2022/11/23 13:12:27;;;;;;;;;;;;;;;;;;5037957;28;6975;-68
2022/11/23 13:15:14;;;;;;;;;;;;;;;;;;5037306;28;7033;-69
2022/11/23 13:17:55;;;;;;;;;;;;;;;;;;5020040;28;7100;-68
2022/11/23 13:20:24;;;;;;;;;;;;;;;;;;5037181;28;7330;-68
2022/11/23 13:28:43;;;;;;;;;;;;;;;;;;5038296;28;7100;-69
2022/11/23 13:34:49;;;;;;;;;;;;;;;;;;5057072;28;7007;-68
2022/11/23 13:37:15;;;;;;;;;;;;;;;;;;5056907;28;6841;-68
2022/11/23 13:39:46;;;;;;;;;;;;;;;;;;5057461;28;7092;-68
2022/11/23 13:42:12;;;;;;;;;;;;;;;;;;5057038;28;7310;-68
2022/11/23 13:44:42;;;;;;;;;;;;;;;;;;5056805;28;7155;-68
2022/11/23 13:47:16;;;;;;;;;;;;;;;;;;5056328;28;6942;-68
2022/11/23 13:53:03;;;;;;;;;;;;;;;;;;5056502;28;6715;-69
2022/11/23 13:55:28;;;;;;;;;;;;;;;;;;5056624;28;7166;-69
2022/11/23 14:01:24;;;;;;;;;;;;;;;;;;5056407;28;6930;-69
2022/11/23 14:04:14;;;;;;;;;;;;;;;;;;5056527;28;7247;-69
2022/11/23 14:06:50;;;;;;;;;;;;;;;;;;5071920;28;7772;-69
2022/11/23 14:09:26;;;;;;;;;;;;;;;;;;5058672;28;7809;-69
2022/11/23 14:12:18;;;;;;;;;;;;;;;;;;5076429;28;7052;-69
2022/11/23 14:14:50;;;;;;;;;;;;;;;;;;5076135;28;7734;-69
2022/11/23 14:23:41;;;;;;;;;;;;;;;;;;5075798;28;6908;-69
2022/11/23 14:26:06;;;;;;;;;;;;;;;;;;5057598;28;9171;-69
2022/11/23 14:29:04;;;;;;;;;;;;;;;;;;5075676;28;7337;-71
2022/11/23 14:31:37;;;;;;;;;;;;;;;;;;5075899;28;7197;-69
2022/11/23 14:43:43;;;;;;;;;;;;;;;;;;5075349;28;6691;-69
2022/11/23 14:46:19;;;;;;;;;;;;;;;;;;5074408;28;8323;-69
2022/11/23 14:48:48;;;;;;;;;;;;;;;;;;5057855;28;7092;-63
2022/11/23 14:51:14;;;;;;;;;;;;;;;;;;5040159;28;7464;-63
2022/11/23 14:54:02;;;;;;;;;;;;;;;;;;5066688;28;7289;-64
2022/11/23 14:56:44;;;;;;;;;;;;;;;;;;5075428;28;7235;-64
2022/11/23 14:59:13;;;;;;;;;;;;;;;;;;5075211;28;7328;-64
2022/11/23 15:01:46;;;;;;;;;;;;;;;;;;5075193;28;7124;-65
2022/11/23 15:04:25;;;;;;;;;;;;;;;;;;5075214;28;7299;-64
2022/11/23 15:07:18;;;;;;;;;;;;;;;;;;5075276;28;7146;-64
2022/11/23 15:18:59;;;;;;;;;;;;;;;;;;5075047;28;6920;-64
2022/11/23 15:21:26;;;;;;;;;;;;;;;;;;5074850;28;6981;-64
2022/11/23 15:24:24;;;;;;;;;;;;;;;;;;5074948;28;7370;-64
2022/11/23 15:26:50;;;;;;;;;;;;;;;;;;5074471;28;7057;-64
2022/11/23 15:29:51;;;;;;;;;;;;;;;;;;5074920;28;7188;-64
2022/11/23 15:35:15;;;;;;;;;;;;;;;;;;5055433;28;6957;-64
2022/11/23 15:37:46;;;;;;;;;;;;;;;;;;5054765;28;7056;-64
2022/11/23 15:40:17;;;;;;;;;;;;;;;;;;5054867;28;6977;-64
2022/11/23 15:42:44;;;;;;;;;;;;;;;;;;5051878;28;7449;-64
2022/11/23 15:45:28;;;;;;;;;;;;;;;;;;5054511;28;6858;-64
2022/11/23 15:48:14;;;;;;;;;;;;;;;;;;5037060;28;8600;-64
2022/11/23 15:50:47;;;;;;;;;;;;;;;;;;5054449;28;7256;-64
2022/11/23 15:56:42;;;;;;;;;;;;;;;;;;5054240;28;6945;-64
2022/11/23 15:59:19;;;;;;;;;;;;;;;;;;5054251;28;7365;-65
2022/11/23 16:01:54;;;;;;;;;;;;;;;;;;5054565;28;7411;-64
2022/11/23 16:04:26;;;;;;;;;;;;;;;;;;5054136;28;7053;-64
2022/11/23 16:10:13;;;;;;;;;;;;;;;;;;5053702;28;6907;-64
2022/11/23 16:12:50;;;;;;;;;;;;;;;;;;5054485;28;7068;-64
2022/11/23 16:21:30;;;;;;;;;;;;;;;;;;5053837;28;6745;-64
2022/11/23 16:23:57;;;;;;;;;;;;;;;;;;5053863;28;8196;-64
2022/11/23 16:26:50;;;;;;;;;;;;;;;;;;5054021;28;7201;-64
2022/11/23 16:29:45;;;;;;;;;;;;;;;;;;5050004;28;7407;-64
2022/11/23 16:38:41;;;;;;;;;;;;;;;;;;5053634;28;6700;-64
2022/11/23 16:41:08;;;;;;;;;;;;;;;;;;5053732;28;6964;-64
2022/11/23 16:44:02;;;;;;;;;;;;;;;;;;5054588;28;7121;-64
2022/11/23 16:46:30;;;;;;;;;;;;;;;;;;5053727;28;7179;-64
2022/11/23 16:52:22;;;;;;;;;;;;;;;;;;5053230;28;6905;-64
2022/11/23 16:54:48;;;;;;;;;;;;;;;;;;5053719;28;7068;-64
2022/11/23 17:00:27;;;;;;;;;;;;;;;;;;5053529;28;7066;-64
2022/11/23 17:02:53;;;;;;;;;;;;;;;;;;5053706;28;7161;-64
2022/11/23 17:05:33;;;;;;;;;;;;;;;;;;5053994;28;6979;-64
2022/11/23 17:07:58;;;;;;;;;;;;;;;;;;5054665;28;6932;-64
2022/11/23 17:10:42;;;;;;;;;;;;;;;;;;5058443;28;7158;-64
2022/11/23 17:16:01;;;;;;;;;;;;;;;;;;5057694;28;6791;-64
2022/11/23 17:18:29;;;;;;;;;;;;;;;;;;5057718;28;7175;-64
2022/11/23 17:20:55;;;;;;;;;;;;;;;;;;5057755;28;7038;-64
2022/11/23 17:23:26;;;;;;;;;;;;;;;;;;5058090;28;7099;-64
2022/11/23 17:25:52;;;;;;;;;;;;;;;;;;5057086;28;7162;-64
2022/11/23 17:28:21;;;;;;;;;;;;;;;;;;5057347;28;6869;-64
2022/11/23 17:30:49;;;;;;;;;;;;;;;;;;5057217;28;6945;-64
2022/11/23 17:33:14;;;;;;;;;;;;;;;;;;5056849;28;7174;-64
2022/11/23 17:35:40;;;;;;;;;;;;;;;;;;5057481;28;7337;-64
2022/11/23 17:38:12;;;;;;;;;;;;;;;;;;5057288;28;7420;-64
2022/11/23 17:40:38;;;;;;;;;;;;;;;;;;5057024;28;7124;-64
2022/11/23 17:43:06;;;;;;;;;;;;;;;;;;5057326;28;7261;-64
2022/11/23 17:45:32;;;;;;;;;;;;;;;;;;5057097;28;7346;-64
2022/11/23 17:47:58;;;;;;;;;;;;;;;;;;5057879;28;6851;-64
2022/11/23 17:50:27;;;;;;;;;;;;;;;;;;5057020;28;6999;-64
2022/11/23 17:52:53;;;;;;;;;;;;;;;;;;5057009;28;7044;-64
2022/11/23 17:55:20;;;;;;;;;;;;;;;;;;5057096;28;7027;-64
2022/11/23 17:57:46;;;;;;;;;;;;;;;;;;5057340;28;7605;-64
2022/11/23 18:00:34;;;;;;;;;;;;;;;;;;5057226;28;7084;-64
2022/11/23 18:03:00;;;;;;;;;;;;;;;;;;5056635;28;6910;-68
2022/11/23 18:05:28;;;;;;;;;;;;;;;;;;5056669;28;7186;-64
2022/11/23 18:07:55;;;;;;;;;;;;;;;;;;5056832;28;7235;-68
2022/11/23 18:10:29;;;;;;;;;;;;;;;;;;5056629;28;7288;-68
2022/11/23 18:12:54;;;;;;;;;;;;;;;;;;5056951;28;6915;-68
2022/11/23 18:15:20;;;;;;;;;;;;;;;;;;5056807;28;7295;-68
2022/11/23 18:17:46;;;;;;;;;;;;;;;;;;5056336;28;8132;-64
2022/11/23 18:20:12;;;;;;;;;;;;;;;;;;5055637;28;7033;-64
2022/11/23 18:22:50;;;;;;;;;;;;;;;;;;5056377;28;6971;-64
2022/11/23 18:25:15;;;;;;;;;;;;;;;;;;5056100;28;7166;-64
2022/11/23 18:27:41;;;;;;;;;;;;;;;;;;5056688;28;7137;-64
2022/11/23 18:30:33;;;;;;;;;;;;;;;;;;5056517;28;7047;-64
2022/11/23 18:33:06;;;;;;;;;;;;;;;;;;5054386;28;8485;-64
2022/11/23 18:35:32;;;;;;;;;;;;;;;;;;5056148;28;7114;-64
2022/11/23 18:40:58;;;;;;;;;;;;;;;;;;5056622;28;6997;-64
2022/11/23 18:43:27;;;;;;;;;;;;;;;;;;5037728;28;8408;-64
2022/11/23 18:46:08;;;;;;;;;;;;;;;;;;5056153;28;7235;-64
2022/11/23 18:48:35;;;;;;;;;;;;;;;;;;5055430;28;6906;-64
2022/11/23 18:51:02;;;;;;;;;;;;;;;;;;5056334;28;7236;-64
2022/11/23 18:53:28;;;;;;;;;;;;;;;;;;5056098;28;7143;-68
2022/11/23 18:58:57;;;;;;;;;;;;;;;;;;5055319;28;6972;-68
2022/11/23 19:01:36;;;;;;;;;;;;;;;;;;5055249;28;7302;-68
2022/11/23 19:04:01;;;;;;;;;;;;;;;;;;5056240;28;7126;-68
2022/11/23 19:06:45;;;;;;;;;;;;;;;;;;5055710;28;7433;-68
2022/11/23 19:09:13;;;;;;;;;;;;;;;;;;5055368;28;7098;-68
2022/11/23 19:11:38;;;;;;;;;;;;;;;;;;5055303;28;7147;-68
2022/11/23 19:14:07;;;;;;;;;;;;;;;;;;5055294;28;6810;-68
2022/11/23 19:16:32;;;;;;;;;;;;;;;;;;5055514;28;7133;-68
2022/11/23 19:19:00;;;;;;;;;;;;;;;;;;5055436;28;7145;-68
2022/11/23 19:21:29;;;;;;;;;;;;;;;;;;5054739;28;7070;-65
2022/11/23 19:23:56;;;;;;;;;;;;;;;;;;5075094;28;6949;-64
2022/11/23 19:26:22;;;;;;;;;;;;;;;;;;5074940;28;7219;-64
2022/11/23 19:28:48;;;;;;;;;;;;;;;;;;5075327;28;7191;-64
2022/11/23 19:34:19;;;;;;;;;;;;;;;;;;5075280;28;6684;-64
2022/11/23 19:36:45;;;;;;;;;;;;;;;;;;5074935;28;7181;-64
2022/11/23 19:39:23;;;;;;;;;;;;;;;;;;5074989;28;7481;-64
2022/11/23 19:41:49;;;;;;;;;;;;;;;;;;5074657;28;7176;-64
2022/11/23 19:47:18;;;;;;;;;;;;;;;;;;5074758;28;7021;-64
2022/11/23 19:49:44;;;;;;;;;;;;;;;;;;5074393;28;7086;-64
2022/11/23 19:52:10;;;;;;;;;;;;;;;;;;5074757;28;8152;-64
2022/11/23 19:54:36;;;;;;;;;;;;;;;;;;5075003;28;7319;-64
2022/11/23 19:57:23;;;;;;;;;;;;;;;;;;5074645;28;7358;-64
2022/11/23 19:59:48;;;;;;;;;;;;;;;;;;5074690;28;7079;-64
2022/11/23 20:02:21;;;;;;;;;;;;;;;;;;5074899;28;6941;-64
2022/11/23 20:04:47;;;;;;;;;;;;;;;;;;5057359;28;7225;-64
2022/11/23 20:07:13;;;;;;;;;;;;;;;;;;5075150;28;7193;-64
2022/11/23 20:09:39;;;;;;;;;;;;;;;;;;5073912;28;7174;-64
2022/11/23 20:12:04;;;;;;;;;;;;;;;;;;5075581;28;7117;-64
2022/11/23 20:14:30;;;;;;;;;;;;;;;;;;5074529;28;7389;-64
2022/11/23 20:16:55;;;;;;;;;;;;;;;;;;5074521;28;7171;-64
2022/11/23 20:19:41;;;;;;;;;;;;;;;;;;5074595;28;7184;-64